Terminal Aerodrome Forecast
Issued by NWS

Home | Current Version | Previous Version | Text Only | Print | Product List | Glossary On
Versions: 1 2 3 4 5 6 7 8 9 10 11 12 13 14 15 16 17
000
FTUS46 KEKA 160122 AAA
TAFCEC
TAF AMD
KCEC 160122Z 1601/1624 12005KT P6SM SKC
     FM160800 16005KT 1SM BR OVC004
     FM161700 18006KT P6SM OVC010=

USA.gov is the U.S. government's official web portal to all federal, state and local government web resources and services.